Terminal Aerodrome Forecast
Issued by NWS

Home | Current Version | Previous Version | Text Only | Print | Product List | Glossary On
Versions: 1 2 3 4 5 6 7 8 9 10 11 12 13 14 15 16 17 18 19 20
232
FTUS43 KGRR 251943 AAA
TAFAZO
TAF AMD
KAZO 251943Z 2520/2618 23008KT P6SM BKN250
     FM260300 19005KT P6SM VCSH BKN070
     FM261500 23007KT P6SM BKN250=

USA.gov is the U.S. government's official web portal to all federal, state and local government web resources and services.